sensor_id;sensor_type;location;lat;lon;timestamp;P1;durP1;ratioP1;P2;durP2;ratioP2
51146;SDS011;37207;53.060;18.726;2023-03-12T00:02:06;17.10;;;6.80;;
51146;SDS011;37207;53.060;18.726;2023-03-12T00:04:33;11.50;;;5.60;;
51146;SDS011;37207;53.060;18.726;2023-03-12T00:07:01;9.10;;;7.10;;
51146;SDS011;37207;53.060;18.726;2023-03-12T00:09:35;12.10;;;8.00;;
51146;SDS011;37207;53.060;18.726;2023-03-12T00:12:02;14.90;;;7.00;;
51146;SDS011;37207;53.060;18.726;2023-03-12T00:14:30;11.30;;;8.40;;
51146;SDS011;37207;53.060;18.726;2023-03-12T00:16:57;12.80;;;7.30;;
51146;SDS011;37207;53.060;18.726;2023-03-12T00:19:24;6.90;;;6.10;;
51146;SDS011;37207;53.060;18.726;2023-03-12T00:21:50;18.30;;;9.60;;
51146;SDS011;37207;53.060;18.726;2023-03-12T00:24:17;13.60;;;9.00;;
51146;SDS011;37207;53.060;18.726;2023-03-12T00:26:44;10.80;;;7.00;;
51146;SDS011;37207;53.060;18.726;2023-03-12T00:29:10;14.80;;;7.30;;
51146;SDS011;37207;53.060;18.726;2023-03-12T00:31:37;12.20;;;7.50;;
51146;SDS011;37207;53.060;18.726;2023-03-12T00:34:03;7.10;;;6.30;;
51146;SDS011;37207;53.060;18.726;2023-03-12T00:36:30;13.40;;;7.40;;
51146;SDS011;37207;53.060;18.726;2023-03-12T00:38:58;9.10;;;6.70;;
51146;SDS011;37207;53.060;18.726;2023-03-12T00:41:26;9.00;;;6.90;;
51146;SDS011;37207;53.060;18.726;2023-03-12T00:43:53;12.80;;;7.20;;
51146;SDS011;37207;53.060;18.726;2023-03-12T00:46:20;6.50;;;5.10;;
51146;SDS011;37207;53.060;18.726;2023-03-12T00:48:47;12.50;;;4.80;;
51146;SDS011;37207;53.060;18.726;2023-03-12T00:51:14;8.70;;;4.60;;
51146;SDS011;37207;53.060;18.726;2023-03-12T00:53:41;13.10;;;4.90;;
51146;SDS011;37207;53.060;18.726;2023-03-12T00:56:07;6.30;;;3.70;;
51146;SDS011;37207;53.060;18.726;2023-03-12T00:58:34;11.70;;;4.10;;
51146;SDS011;37207;53.060;18.726;2023-03-12T01:01:01;6.90;;;4.10;;
51146;SDS011;37207;53.060;18.726;2023-03-12T01:03:27;10.30;;;4.60;;
51146;SDS011;37207;53.060;18.726;2023-03-12T01:05:54;6.10;;;3.70;;
51146;SDS011;37207;53.060;18.726;2023-03-12T01:08:21;14.70;;;4.60;;
51146;SDS011;37207;53.060;18.726;2023-03-12T01:10:48;8.60;;;5.50;;
51146;SDS011;37207;53.060;18.726;2023-03-12T01:13:15;8.60;;;4.90;;
51146;SDS011;37207;53.060;18.726;2023-03-12T01:15:42;7.90;;;4.60;;
51146;SDS011;37207;53.060;18.726;2023-03-12T01:18:08;7.20;;;5.10;;
51146;SDS011;37207;53.060;18.726;2023-03-12T01:20:35;9.40;;;5.50;;
51146;SDS011;37207;53.060;18.726;2023-03-12T01:23:01;5.50;;;3.80;;
51146;SDS011;37207;53.060;18.726;2023-03-12T01:25:28;9.50;;;6.00;;
51146;SDS011;37207;53.060;18.726;2023-03-12T01:27:55;8.10;;;5.50;;
51146;SDS011;37207;53.060;18.726;2023-03-12T01:30:21;8.70;;;3.90;;
51146;SDS011;37207;53.060;18.726;2023-03-12T01:32:49;10.80;;;4.20;;
51146;SDS011;37207;53.060;18.726;2023-03-12T01:35:17;6.40;;;4.10;;
51146;SDS011;37207;53.060;18.726;2023-03-12T01:37:44;5.00;;;3.30;;
51146;SDS011;37207;53.060;18.726;2023-03-12T01:40:14;8.50;;;4.40;;
51146;SDS011;37207;53.060;18.726;2023-03-12T01:42:50;5.50;;;3.60;;
51146;SDS011;37207;53.060;18.726;2023-03-12T01:48:27;4.00;;;3.60;;
51146;SDS011;37207;53.060;18.726;2023-03-12T01:50:59;4.20;;;2.50;;
51146;SDS011;37207;53.060;18.726;2023-03-12T01:53:27;7.80;;;3.00;;
51146;SDS011;37207;53.060;18.726;2023-03-12T01:55:56;5.20;;;2.70;;
51146;SDS011;37207;53.060;18.726;2023-03-12T01:58:24;4.00;;;2.70;;
51146;SDS011;37207;53.060;18.726;2023-03-12T02:00:54;5.10;;;2.60;;
51146;SDS011;37207;53.060;18.726;2023-03-12T02:03:20;9.00;;;2.60;;
51146;SDS011;37207;53.060;18.726;2023-03-12T02:05:50;2.90;;;2.00;;
51146;SDS011;37207;53.060;18.726;2023-03-12T02:08:20;3.80;;;2.60;;
51146;SDS011;37207;53.060;18.726;2023-03-12T02:10:49;3.20;;;2.00;;
51146;SDS011;37207;53.060;18.726;2023-03-12T02:13:15;4.00;;;2.00;;
51146;SDS011;37207;53.060;18.726;2023-03-12T02:15:44;2.60;;;2.20;;
51146;SDS011;37207;53.060;18.726;2023-03-12T02:18:12;2.80;;;2.10;;
51146;SDS011;37207;53.060;18.726;2023-03-12T02:25:53;2.70;;;2.10;;
51146;SDS011;37207;53.060;18.726;2023-03-12T02:28:22;6.90;;;2.10;;
51146;SDS011;37207;53.060;18.726;2023-03-12T02:30:53;3.80;;;2.10;;
51146;SDS011;37207;53.060;18.726;2023-03-12T02:33:24;2.90;;;2.20;;
51146;SDS011;37207;53.060;18.726;2023-03-12T02:35:52;2.00;;;1.60;;
51146;SDS011;37207;53.060;18.726;2023-03-12T02:43:37;5.50;;;2.00;;
51146;SDS011;37207;53.060;18.726;2023-03-12T02:46:05;3.40;;;1.50;;
51146;SDS011;37207;53.060;18.726;2023-03-12T02:48:33;3.50;;;2.90;;
51146;SDS011;37207;53.060;18.726;2023-03-12T02:51:00;4.20;;;2.70;;
51146;SDS011;37207;53.060;18.726;2023-03-12T02:53:28;3.50;;;1.80;;
51146;SDS011;37207;53.060;18.726;2023-03-12T02:55:55;3.20;;;2.30;;
51146;SDS011;37207;53.060;18.726;2023-03-12T02:58:22;2.60;;;2.40;;
51146;SDS011;37207;53.060;18.726;2023-03-12T03:00:49;2.80;;;2.10;;
51146;SDS011;37207;53.060;18.726;2023-03-12T03:03:15;5.40;;;2.30;;
51146;SDS011;37207;53.060;18.726;2023-03-12T03:05:42;4.00;;;2.70;;
51146;SDS011;37207;53.060;18.726;2023-03-12T03:08:09;2.90;;;2.10;;
51146;SDS011;37207;53.060;18.726;2023-03-12T03:10:35;5.90;;;2.10;;
51146;SDS011;37207;53.060;18.726;2023-03-12T03:13:02;3.40;;;2.00;;
51146;SDS011;37207;53.060;18.726;2023-03-12T03:15:28;2.70;;;2.50;;
51146;SDS011;37207;53.060;18.726;2023-03-12T03:17:55;2.50;;;2.30;;
51146;SDS011;37207;53.060;18.726;2023-03-12T03:20:21;3.50;;;2.50;;
51146;SDS011;37207;53.060;18.726;2023-03-12T03:22:50;3.30;;;2.40;;
51146;SDS011;37207;53.060;18.726;2023-03-12T03:25:16;4.50;;;1.70;;
51146;SDS011;37207;53.060;18.726;2023-03-12T03:27:43;3.90;;;1.90;;
51146;SDS011;37207;53.060;18.726;2023-03-12T03:30:10;6.30;;;2.50;;
51146;SDS011;37207;53.060;18.726;2023-03-12T03:32:39;2.30;;;2.00;;
51146;SDS011;37207;53.060;18.726;2023-03-12T03:35:07;2.00;;;1.70;;
51146;SDS011;37207;53.060;18.726;2023-03-12T03:37:34;3.70;;;1.70;;
51146;SDS011;37207;53.060;18.726;2023-03-12T03:40:00;4.60;;;2.50;;
51146;SDS011;37207;53.060;18.726;2023-03-12T03:42:27;2.60;;;1.70;;
51146;SDS011;37207;53.060;18.726;2023-03-12T03:44:53;3.80;;;2.10;;
51146;SDS011;37207;53.060;18.726;2023-03-12T03:47:20;2.80;;;1.90;;
51146;SDS011;37207;53.060;18.726;2023-03-12T03:49:47;2.60;;;1.90;;
51146;SDS011;37207;53.060;18.726;2023-03-12T03:52:14;3.50;;;1.60;;
51146;SDS011;37207;53.060;18.726;2023-03-12T03:54:40;3.60;;;1.40;;
51146;SDS011;37207;53.060;18.726;2023-03-12T03:57:07;2.20;;;1.40;;
51146;SDS011;37207;53.060;18.726;2023-03-12T03:59:33;2.50;;;1.20;;
51146;SDS011;37207;53.060;18.726;2023-03-12T04:02:00;1.60;;;1.00;;
51146;SDS011;37207;53.060;18.726;2023-03-12T04:04:28;3.30;;;1.20;;
51146;SDS011;37207;53.060;18.726;2023-03-12T04:06:57;2.80;;;0.90;;
51146;SDS011;37207;53.060;18.726;2023-03-12T04:09:24;1.30;;;0.90;;
51146;SDS011;37207;53.060;18.726;2023-03-12T04:11:51;3.40;;;1.50;;
51146;SDS011;37207;53.060;18.726;2023-03-12T04:14:18;2.80;;;1.20;;
51146;SDS011;37207;53.060;18.726;2023-03-12T04:16:44;2.30;;;1.10;;
51146;SDS011;37207;53.060;18.726;2023-03-12T04:19:11;7.50;;;0.80;;
51146;SDS011;37207;53.060;18.726;2023-03-12T04:21:38;5.70;;;1.30;;
51146;SDS011;37207;53.060;18.726;2023-03-12T04:24:06;0.90;;;0.40;;
51146;SDS011;37207;53.060;18.726;2023-03-12T04:26:38;3.10;;;0.70;;
51146;SDS011;37207;53.060;18.726;2023-03-12T04:29:05;2.60;;;0.80;;
51146;SDS011;37207;53.060;18.726;2023-03-12T04:31:33;2.30;;;0.90;;
51146;SDS011;37207;53.060;18.726;2023-03-12T04:34:00;5.60;;;0.80;;
51146;SDS011;37207;53.060;18.726;2023-03-12T04:36:26;5.00;;;1.00;;
51146;SDS011;37207;53.060;18.726;2023-03-12T04:38:54;2.00;;;0.80;;
51146;SDS011;37207;53.060;18.726;2023-03-12T04:41:25;4.00;;;1.20;;
51146;SDS011;37207;53.060;18.726;2023-03-12T04:43:56;2.10;;;0.70;;
51146;SDS011;37207;53.060;18.726;2023-03-12T04:46:23;2.70;;;0.70;;
51146;SDS011;37207;53.060;18.726;2023-03-12T04:48:50;1.80;;;1.00;;
51146;SDS011;37207;53.060;18.726;2023-03-12T04:51:16;0.40;;;0.40;;
51146;SDS011;37207;53.060;18.726;2023-03-12T04:53:43;3.00;;;0.80;;
51146;SDS011;37207;53.060;18.726;2023-03-12T04:56:11;5.60;;;1.60;;
51146;SDS011;37207;53.060;18.726;2023-03-12T04:58:38;2.80;;;1.60;;
51146;SDS011;37207;53.060;18.726;2023-03-12T05:01:05;2.00;;;1.20;;
51146;SDS011;37207;53.060;18.726;2023-03-12T05:03:31;0.60;;;0.50;;
51146;SDS011;37207;53.060;18.726;2023-03-12T05:05:59;3.60;;;1.00;;
51146;SDS011;37207;53.060;18.726;2023-03-12T05:08:25;2.10;;;1.00;;
51146;SDS011;37207;53.060;18.726;2023-03-12T05:10:52;3.70;;;0.80;;
51146;SDS011;37207;53.060;18.726;2023-03-12T05:13:20;4.20;;;1.70;;
51146;SDS011;37207;53.060;18.726;2023-03-12T05:15:50;8.00;;;1.90;;
51146;SDS011;37207;53.060;18.726;2023-03-12T05:18:17;5.60;;;1.60;;
51146;SDS011;37207;53.060;18.726;2023-03-12T05:20:46;1.30;;;0.70;;
51146;SDS011;37207;53.060;18.726;2023-03-12T05:23:33;3.80;;;1.10;;
51146;SDS011;37207;53.060;18.726;2023-03-12T05:26:00;4.20;;;1.70;;
51146;SDS011;37207;53.060;18.726;2023-03-12T05:28:27;1.70;;;1.10;;
51146;SDS011;37207;53.060;18.726;2023-03-12T05:30:56;5.50;;;1.00;;
51146;SDS011;37207;53.060;18.726;2023-03-12T05:33:24;2.30;;;1.10;;
51146;SDS011;37207;53.060;18.726;2023-03-12T05:35:52;6.10;;;0.80;;
51146;SDS011;37207;53.060;18.726;2023-03-12T05:38:19;1.60;;;0.70;;
51146;SDS011;37207;53.060;18.726;2023-03-12T05:40:50;3.20;;;0.70;;
51146;SDS011;37207;53.060;18.726;2023-03-12T05:43:19;2.60;;;0.50;;
51146;SDS011;37207;53.060;18.726;2023-03-12T05:45:46;0.40;;;0.40;;
51146;SDS011;37207;53.060;18.726;2023-03-12T05:48:13;1.00;;;0.60;;
51146;SDS011;37207;53.060;18.726;2023-03-12T05:50:40;1.60;;;1.10;;
51146;SDS011;37207;53.060;18.726;2023-03-12T05:53:06;4.30;;;1.40;;
51146;SDS011;37207;53.060;18.726;2023-03-12T05:55:34;3.50;;;1.50;;
51146;SDS011;37207;53.060;18.726;2023-03-12T05:58:02;1.20;;;1.00;;
51146;SDS011;37207;53.060;18.726;2023-03-12T06:00:30;4.20;;;1.50;;
51146;SDS011;37207;53.060;18.726;2023-03-12T06:02:58;3.80;;;1.60;;
51146;SDS011;37207;53.060;18.726;2023-03-12T06:05:24;7.00;;;1.60;;
51146;SDS011;37207;53.060;18.726;2023-03-12T06:07:51;8.70;;;1.50;;
51146;SDS011;37207;53.060;18.726;2023-03-12T06:10:17;3.30;;;2.00;;
51146;SDS011;37207;53.060;18.726;2023-03-12T06:12:44;7.40;;;1.70;;
51146;SDS011;37207;53.060;18.726;2023-03-12T06:15:11;3.90;;;1.40;;
51146;SDS011;37207;53.060;18.726;2023-03-12T06:17:38;3.30;;;1.70;;
51146;SDS011;37207;53.060;18.726;2023-03-12T06:20:05;2.70;;;1.90;;
51146;SDS011;37207;53.060;18.726;2023-03-12T06:22:32;7.30;;;1.60;;
51146;SDS011;37207;53.060;18.726;2023-03-12T06:24:59;3.20;;;1.80;;
51146;SDS011;37207;53.060;18.726;2023-03-12T06:27:26;3.20;;;1.30;;
51146;SDS011;37207;53.060;18.726;2023-03-12T06:29:52;2.10;;;1.30;;
51146;SDS011;37207;53.060;18.726;2023-03-12T06:32:19;26.00;;;21.10;;
51146;SDS011;37207;53.060;18.726;2023-03-12T06:34:45;10.90;;;9.30;;
51146;SDS011;37207;53.060;18.726;2023-03-12T06:37:12;12.00;;;9.50;;
51146;SDS011;37207;53.060;18.726;2023-03-12T06:39:39;8.70;;;6.40;;
51146;SDS011;37207;53.060;18.726;2023-03-12T06:42:05;4.80;;;2.40;;
51146;SDS011;37207;53.060;18.726;2023-03-12T06:44:32;6.30;;;5.70;;
51146;SDS011;37207;53.060;18.726;2023-03-12T06:46:59;8.40;;;4.90;;
51146;SDS011;37207;53.060;18.726;2023-03-12T06:49:25;5.60;;;5.10;;
51146;SDS011;37207;53.060;18.726;2023-03-12T06:51:57;7.50;;;3.50;;
51146;SDS011;37207;53.060;18.726;2023-03-12T06:54:24;5.80;;;2.80;;
51146;SDS011;37207;53.060;18.726;2023-03-12T06:56:50;6.70;;;4.00;;
51146;SDS011;37207;53.060;18.726;2023-03-12T06:59:17;6.20;;;4.20;;
51146;SDS011;37207;53.060;18.726;2023-03-12T07:01:47;8.20;;;3.20;;
51146;SDS011;37207;53.060;18.726;2023-03-12T07:04:14;6.00;;;2.80;;
51146;SDS011;37207;53.060;18.726;2023-03-12T07:06:40;6.90;;;3.30;;
51146;SDS011;37207;53.060;18.726;2023-03-12T07:09:07;7.00;;;3.20;;
51146;SDS011;37207;53.060;18.726;2023-03-12T07:11:34;9.10;;;4.80;;
51146;SDS011;37207;53.060;18.726;2023-03-12T07:14:00;7.70;;;2.60;;
51146;SDS011;37207;53.060;18.726;2023-03-12T07:16:27;7.10;;;4.10;;
51146;SDS011;37207;53.060;18.726;2023-03-12T07:18:53;5.30;;;3.80;;
51146;SDS011;37207;53.060;18.726;2023-03-12T07:21:20;8.30;;;5.40;;
51146;SDS011;37207;53.060;18.726;2023-03-12T07:23:49;6.40;;;3.30;;
51146;SDS011;37207;53.060;18.726;2023-03-12T07:26:16;10.80;;;4.00;;
51146;SDS011;37207;53.060;18.726;2023-03-12T07:28:43;9.20;;;4.30;;
51146;SDS011;37207;53.060;18.726;2023-03-12T07:31:09;6.90;;;3.00;;
51146;SDS011;37207;53.060;18.726;2023-03-12T07:33:36;4.80;;;2.00;;
51146;SDS011;37207;53.060;18.726;2023-03-12T07:36:03;8.60;;;4.10;;
51146;SDS011;37207;53.060;18.726;2023-03-12T07:38:30;14.90;;;5.20;;
51146;SDS011;37207;53.060;18.726;2023-03-12T07:40:57;17.70;;;6.30;;
51146;SDS011;37207;53.060;18.726;2023-03-12T07:43:25;10.80;;;5.60;;
51146;SDS011;37207;53.060;18.726;2023-03-12T07:45:53;9.70;;;4.30;;
51146;SDS011;37207;53.060;18.726;2023-03-12T07:48:20;9.20;;;4.20;;
51146;SDS011;37207;53.060;18.726;2023-03-12T07:50:47;9.70;;;5.40;;
51146;SDS011;37207;53.060;18.726;2023-03-12T07:53:14;3.70;;;2.30;;
51146;SDS011;37207;53.060;18.726;2023-03-12T07:55:42;4.20;;;3.10;;
51146;SDS011;37207;53.060;18.726;2023-03-12T07:58:10;3.00;;;1.80;;
51146;SDS011;37207;53.060;18.726;2023-03-12T08:00:38;7.10;;;2.90;;
51146;SDS011;37207;53.060;18.726;2023-03-12T08:03:05;2.50;;;1.70;;
51146;SDS011;37207;53.060;18.726;2023-03-12T08:05:31;3.20;;;2.40;;
51146;SDS011;37207;53.060;18.726;2023-03-12T08:07:58;6.10;;;3.30;;
51146;SDS011;37207;53.060;18.726;2023-03-12T08:10:24;9.80;;;5.60;;
51146;SDS011;37207;53.060;18.726;2023-03-12T08:12:51;6.60;;;4.30;;
51146;SDS011;37207;53.060;18.726;2023-03-12T08:15:17;5.30;;;3.80;;
51146;SDS011;37207;53.060;18.726;2023-03-12T08:17:44;4.00;;;2.70;;
51146;SDS011;37207;53.060;18.726;2023-03-12T08:20:11;4.10;;;2.40;;
51146;SDS011;37207;53.060;18.726;2023-03-12T08:22:38;4.80;;;2.80;;
51146;SDS011;37207;53.060;18.726;2023-03-12T08:25:06;5.00;;;3.30;;
51146;SDS011;37207;53.060;18.726;2023-03-12T08:27:33;5.90;;;3.50;;
51146;SDS011;37207;53.060;18.726;2023-03-12T08:30:00;5.80;;;2.80;;
51146;SDS011;37207;53.060;18.726;2023-03-12T08:32:27;4.30;;;3.10;;
51146;SDS011;37207;53.060;18.726;2023-03-12T08:34:53;5.60;;;3.50;;
51146;SDS011;37207;53.060;18.726;2023-03-12T08:37:20;5.40;;;4.90;;
51146;SDS011;37207;53.060;18.726;2023-03-12T08:39:47;7.00;;;5.60;;
51146;SDS011;37207;53.060;18.726;2023-03-12T08:42:13;6.10;;;4.80;;
51146;SDS011;37207;53.060;18.726;2023-03-12T08:44:40;9.40;;;3.50;;
51146;SDS011;37207;53.060;18.726;2023-03-12T08:47:06;2.80;;;2.10;;
51146;SDS011;37207;53.060;18.726;2023-03-12T08:49:33;2.50;;;1.50;;
51146;SDS011;37207;53.060;18.726;2023-03-12T08:51:59;5.40;;;2.00;;
51146;SDS011;37207;53.060;18.726;2023-03-12T08:54:27;2.90;;;1.90;;
51146;SDS011;37207;53.060;18.726;2023-03-12T08:56:53;2.60;;;1.40;;
51146;SDS011;37207;53.060;18.726;2023-03-12T08:59:20;3.20;;;1.30;;
51146;SDS011;37207;53.060;18.726;2023-03-12T09:01:47;2.40;;;1.40;;
51146;SDS011;37207;53.060;18.726;2023-03-12T09:04:14;2.30;;;1.60;;
51146;SDS011;37207;53.060;18.726;2023-03-12T09:06:41;1.90;;;1.50;;
51146;SDS011;37207;53.060;18.726;2023-03-12T09:09:08;4.70;;;2.60;;
51146;SDS011;37207;53.060;18.726;2023-03-12T09:11:35;5.10;;;2.10;;
51146;SDS011;37207;53.060;18.726;2023-03-12T09:14:05;3.70;;;2.30;;
51146;SDS011;37207;53.060;18.726;2023-03-12T09:16:31;3.60;;;1.90;;
51146;SDS011;37207;53.060;18.726;2023-03-12T09:18:58;3.50;;;3.10;;
51146;SDS011;37207;53.060;18.726;2023-03-12T09:21:25;6.00;;;3.90;;
51146;SDS011;37207;53.060;18.726;2023-03-12T09:23:52;4.20;;;2.60;;
51146;SDS011;37207;53.060;18.726;2023-03-12T09:26:18;3.40;;;3.10;;
51146;SDS011;37207;53.060;18.726;2023-03-12T09:28:45;10.90;;;1.50;;
51146;SDS011;37207;53.060;18.726;2023-03-12T09:31:11;2.90;;;1.50;;
51146;SDS011;37207;53.060;18.726;2023-03-12T09:33:38;4.90;;;1.70;;
51146;SDS011;37207;53.060;18.726;2023-03-12T09:36:04;4.10;;;1.60;;
51146;SDS011;37207;53.060;18.726;2023-03-12T09:38:31;3.70;;;2.80;;
51146;SDS011;37207;53.060;18.726;2023-03-12T09:41:02;2.70;;;1.40;;
51146;SDS011;37207;53.060;18.726;2023-03-12T09:43:37;5.80;;;1.80;;
51146;SDS011;37207;53.060;18.726;2023-03-12T09:46:10;5.20;;;1.80;;
51146;SDS011;37207;53.060;18.726;2023-03-12T09:48:40;3.30;;;2.00;;
51146;SDS011;37207;53.060;18.726;2023-03-12T09:51:18;3.70;;;2.00;;
51146;SDS011;37207;53.060;18.726;2023-03-12T09:53:52;4.20;;;2.50;;
51146;SDS011;37207;53.060;18.726;2023-03-12T09:56:22;3.50;;;2.20;;
51146;SDS011;37207;53.060;18.726;2023-03-12T09:58:49;6.70;;;4.80;;
51146;SDS011;37207;53.060;18.726;2023-03-12T10:07:08;9.70;;;8.50;;
51146;SDS011;37207;53.060;18.726;2023-03-12T10:18:12;4.50;;;2.50;;
51146;SDS011;37207;53.060;18.726;2023-03-12T10:20:49;3.60;;;2.00;;
51146;SDS011;37207;53.060;18.726;2023-03-12T10:23:29;4.00;;;2.70;;
51146;SDS011;37207;53.060;18.726;2023-03-12T10:26:13;3.60;;;2.10;;
51146;SDS011;37207;53.060;18.726;2023-03-12T10:28:48;3.70;;;1.80;;
51146;SDS011;37207;53.060;18.726;2023-03-12T10:31:21;3.70;;;2.20;;
51146;SDS011;37207;53.060;18.726;2023-03-12T10:33:56;3.00;;;2.10;;
51146;SDS011;37207;53.060;18.726;2023-03-12T10:36:35;4.40;;;2.60;;
51146;SDS011;37207;53.060;18.726;2023-03-12T10:39:09;19.80;;;11.20;;
51146;SDS011;37207;53.060;18.726;2023-03-12T10:41:44;15.60;;;8.40;;
51146;SDS011;37207;53.060;18.726;2023-03-12T10:44:19;5.00;;;2.50;;
51146;SDS011;37207;53.060;18.726;2023-03-12T10:46:53;4.00;;;2.70;;
51146;SDS011;37207;53.060;18.726;2023-03-12T10:49:28;3.50;;;1.80;;
51146;SDS011;37207;53.060;18.726;2023-03-12T10:51:58;5.70;;;3.70;;
51146;SDS011;37207;53.060;18.726;2023-03-12T10:56:58;5.40;;;3.10;;
51146;SDS011;37207;53.060;18.726;2023-03-12T10:59:27;3.50;;;3.20;;
51146;SDS011;37207;53.060;18.726;2023-03-12T11:01:56;4.00;;;2.60;;
51146;SDS011;37207;53.060;18.726;2023-03-12T11:04:24;7.40;;;3.70;;
51146;SDS011;37207;53.060;18.726;2023-03-12T11:09:31;6.60;;;4.80;;
51146;SDS011;37207;53.060;18.726;2023-03-12T11:11:58;6.50;;;4.20;;
51146;SDS011;37207;53.060;18.726;2023-03-12T11:14:26;5.40;;;3.70;;
51146;SDS011;37207;53.060;18.726;2023-03-12T11:16:55;5.60;;;3.30;;
51146;SDS011;37207;53.060;18.726;2023-03-12T11:19:29;4.50;;;2.70;;
51146;SDS011;37207;53.060;18.726;2023-03-12T11:21:58;6.50;;;4.10;;
51146;SDS011;37207;53.060;18.726;2023-03-12T11:24:33;5.20;;;3.70;;
51146;SDS011;37207;53.060;18.726;2023-03-12T11:27:12;8.00;;;5.50;;
51146;SDS011;37207;53.060;18.726;2023-03-12T11:29:51;8.10;;;6.10;;
51146;SDS011;37207;53.060;18.726;2023-03-12T11:32:35;7.70;;;5.00;;
51146;SDS011;37207;53.060;18.726;2023-03-12T11:35:08;10.10;;;7.80;;
51146;SDS011;37207;53.060;18.726;2023-03-12T11:37:40;5.80;;;5.10;;
51146;SDS011;37207;53.060;18.726;2023-03-12T11:40:20;4.10;;;3.70;;
51146;SDS011;37207;53.060;18.726;2023-03-12T11:51:30;4.90;;;3.30;;
51146;SDS011;37207;53.060;18.726;2023-03-12T11:54:10;11.40;;;5.30;;
51146;SDS011;37207;53.060;18.726;2023-03-12T11:56:52;5.80;;;3.10;;
51146;SDS011;37207;53.060;18.726;2023-03-12T12:05:25;7.50;;;5.60;;
51146;SDS011;37207;53.060;18.726;2023-03-12T12:19:36;7.50;;;4.50;;
51146;SDS011;37207;53.060;18.726;2023-03-12T12:24:53;13.80;;;5.00;;
51146;SDS011;37207;53.060;18.726;2023-03-12T12:36:40;6.00;;;3.40;;
51146;SDS011;37207;53.060;18.726;2023-03-12T12:39:28;66.20;;;22.00;;
51146;SDS011;37207;53.060;18.726;2023-03-12T12:41:58;8.10;;;4.50;;
51146;SDS011;37207;53.060;18.726;2023-03-12T12:44:41;8.40;;;5.20;;
51146;SDS011;37207;53.060;18.726;2023-03-12T12:47:13;9.50;;;5.40;;
51146;SDS011;37207;53.060;18.726;2023-03-12T12:49:52;12.90;;;4.90;;
51146;SDS011;37207;53.060;18.726;2023-03-12T12:52:22;6.30;;;4.20;;
51146;SDS011;37207;53.060;18.726;2023-03-12T12:54:55;7.70;;;4.80;;
51146;SDS011;37207;53.060;18.726;2023-03-12T12:58:09;5.70;;;3.80;;
51146;SDS011;37207;53.060;18.726;2023-03-12T13:03:19;7.60;;;4.50;;
51146;SDS011;37207;53.060;18.726;2023-03-12T13:11:21;6.30;;;3.40;;
51146;SDS011;37207;53.060;18.726;2023-03-12T13:14:11;5.20;;;3.50;;
51146;SDS011;37207;53.060;18.726;2023-03-12T13:16:45;5.60;;;3.10;;
51146;SDS011;37207;53.060;18.726;2023-03-12T13:21:40;6.30;;;3.90;;
51146;SDS011;37207;53.060;18.726;2023-03-12T13:24:21;6.20;;;3.80;;
51146;SDS011;37207;53.060;18.726;2023-03-12T13:29:59;7.30;;;3.20;;
51146;SDS011;37207;53.060;18.726;2023-03-12T13:45:33;5.20;;;3.70;;
51146;SDS011;37207;53.060;18.726;2023-03-12T13:48:24;7.60;;;4.00;;
51146;SDS011;37207;53.060;18.726;2023-03-12T13:50:58;13.00;;;5.90;;
51146;SDS011;37207;53.060;18.726;2023-03-12T13:53:35;6.40;;;4.70;;
51146;SDS011;37207;53.060;18.726;2023-03-12T13:56:06;8.90;;;5.10;;
51146;SDS011;37207;53.060;18.726;2023-03-12T13:58:40;7.30;;;4.90;;
51146;SDS011;37207;53.060;18.726;2023-03-12T14:01:14;3.70;;;3.20;;
51146;SDS011;37207;53.060;18.726;2023-03-12T14:03:45;6.00;;;3.30;;
51146;SDS011;37207;53.060;18.726;2023-03-12T14:06:17;40.80;;;13.70;;
51146;SDS011;37207;53.060;18.726;2023-03-12T14:08:52;12.50;;;4.70;;
51146;SDS011;37207;53.060;18.726;2023-03-12T14:17:00;4.90;;;3.60;;
51146;SDS011;37207;53.060;18.726;2023-03-12T14:19:32;14.80;;;10.50;;
51146;SDS011;37207;53.060;18.726;2023-03-12T14:22:01;5.70;;;4.40;;
51146;SDS011;37207;53.060;18.726;2023-03-12T14:24:48;4.10;;;3.10;;
51146;SDS011;37207;53.060;18.726;2023-03-12T14:27:20;9.20;;;3.10;;
51146;SDS011;37207;53.060;18.726;2023-03-12T14:29:54;5.70;;;3.20;;
51146;SDS011;37207;53.060;18.726;2023-03-12T14:32:26;16.90;;;15.20;;
51146;SDS011;37207;53.060;18.726;2023-03-12T14:35:01;9.60;;;8.70;;
51146;SDS011;37207;53.060;18.726;2023-03-12T14:37:41;13.50;;;5.40;;
51146;SDS011;37207;53.060;18.726;2023-03-12T14:40:23;7.90;;;4.20;;
51146;SDS011;37207;53.060;18.726;2023-03-12T14:42:58;6.00;;;4.00;;
51146;SDS011;37207;53.060;18.726;2023-03-12T14:45:25;6.60;;;4.40;;
51146;SDS011;37207;53.060;18.726;2023-03-12T14:47:54;7.60;;;4.70;;
51146;SDS011;37207;53.060;18.726;2023-03-12T14:50:24;11.20;;;5.20;;
51146;SDS011;37207;53.060;18.726;2023-03-12T14:52:51;7.40;;;3.90;;
51146;SDS011;37207;53.060;18.726;2023-03-12T14:55:20;6.20;;;3.50;;
51146;SDS011;37207;53.060;18.726;2023-03-12T14:58:01;12.50;;;9.90;;
51146;SDS011;37207;53.060;18.726;2023-03-12T15:00:32;7.60;;;5.10;;
51146;SDS011;37207;53.060;18.726;2023-03-12T15:03:01;10.10;;;5.50;;
51146;SDS011;37207;53.060;18.726;2023-03-12T15:05:30;10.70;;;6.50;;
51146;SDS011;37207;53.060;18.726;2023-03-12T15:08:00;8.50;;;5.90;;
51146;SDS011;37207;53.060;18.726;2023-03-12T15:10:29;32.60;;;13.10;;
51146;SDS011;37207;53.060;18.726;2023-03-12T15:12:58;20.90;;;8.40;;
51146;SDS011;37207;53.060;18.726;2023-03-12T15:17:53;10.30;;;6.80;;
51146;SDS011;37207;53.060;18.726;2023-03-12T15:20:20;10.60;;;7.30;;
51146;SDS011;37207;53.060;18.726;2023-03-12T15:22:49;9.20;;;6.10;;
51146;SDS011;37207;53.060;18.726;2023-03-12T15:25:21;10.10;;;2.60;;
51146;SDS011;37207;53.060;18.726;2023-03-12T15:27:59;7.30;;;5.80;;
51146;SDS011;37207;53.060;18.726;2023-03-12T15:30:28;8.50;;;6.20;;
51146;SDS011;37207;53.060;18.726;2023-03-12T15:33:05;10.60;;;8.50;;
51146;SDS011;37207;53.060;18.726;2023-03-12T15:35:40;9.80;;;8.70;;
51146;SDS011;37207;53.060;18.726;2023-03-12T15:38:13;11.60;;;9.20;;
51146;SDS011;37207;53.060;18.726;2023-03-12T15:40:40;12.10;;;10.20;;
51146;SDS011;37207;53.060;18.726;2023-03-12T15:43:14;12.30;;;9.50;;
51146;SDS011;37207;53.060;18.726;2023-03-12T15:45:44;10.90;;;8.20;;
51146;SDS011;37207;53.060;18.726;2023-03-12T15:50:56;21.50;;;13.90;;
51146;SDS011;37207;53.060;18.726;2023-03-12T15:53:24;23.60;;;14.60;;
51146;SDS011;37207;53.060;18.726;2023-03-12T15:56:02;28.10;;;14.90;;
51146;SDS011;37207;53.060;18.726;2023-03-12T15:59:00;17.20;;;6.20;;
51146;SDS011;37207;53.060;18.726;2023-03-12T16:01:29;14.40;;;6.40;;
51146;SDS011;37207;53.060;18.726;2023-03-12T16:03:55;19.90;;;11.50;;
51146;SDS011;37207;53.060;18.726;2023-03-12T16:06:24;17.10;;;11.20;;
51146;SDS011;37207;53.060;18.726;2023-03-12T16:08:57;22.10;;;13.00;;
51146;SDS011;37207;53.060;18.726;2023-03-12T16:11:28;13.20;;;9.90;;
51146;SDS011;37207;53.060;18.726;2023-03-12T16:14:06;18.90;;;10.50;;
51146;SDS011;37207;53.060;18.726;2023-03-12T16:16:41;29.30;;;9.00;;
51146;SDS011;37207;53.060;18.726;2023-03-12T16:19:11;24.60;;;11.90;;
51146;SDS011;37207;53.060;18.726;2023-03-12T16:21:39;26.40;;;16.30;;
51146;SDS011;37207;53.060;18.726;2023-03-12T16:24:06;46.70;;;30.90;;
51146;SDS011;37207;53.060;18.726;2023-03-12T16:26:34;57.90;;;20.10;;
51146;SDS011;37207;53.060;18.726;2023-03-12T16:29:03;133.40;;;34.00;;
51146;SDS011;37207;53.060;18.726;2023-03-12T16:31:30;68.70;;;23.00;;
51146;SDS011;37207;53.060;18.726;2023-03-12T16:33:56;60.40;;;34.00;;